sensor_id;sensor_type;location;lat;lon;timestamp;temperature;humidity
55313;DHT22;46892;45.668;11.756;2023-09-19T00:01:08;20.00;89.10
55313;DHT22;46892;45.668;11.756;2023-09-19T00:03:35;20.00;89.30
55313;DHT22;46892;45.668;11.756;2023-09-19T00:06:04;20.00;89.00
55313;DHT22;46892;45.668;11.756;2023-09-19T00:08:32;19.90;89.10
55313;DHT22;46892;45.668;11.756;2023-09-19T00:10:58;20.00;89.20
55313;DHT22;46892;45.668;11.756;2023-09-19T00:13:34;20.00;89.20
55313;DHT22;46892;45.668;11.756;2023-09-19T00:16:01;19.90;88.60
55313;DHT22;46892;45.668;11.756;2023-09-19T00:18:33;19.80;88.50
55313;DHT22;46892;45.668;11.756;2023-09-19T00:21:00;19.80;88.80
55313;DHT22;46892;45.668;11.756;2023-09-19T00:23:26;19.80;88.70
55313;DHT22;46892;45.668;11.756;2023-09-19T00:25:53;19.80;89.00
55313;DHT22;46892;45.668;11.756;2023-09-19T00:28:23;19.80;89.20
55313;DHT22;46892;45.668;11.756;2023-09-19T00:30:48;19.80;89.20
55313;DHT22;46892;45.668;11.756;2023-09-19T00:33:18;19.70;89.40
55313;DHT22;46892;45.668;11.756;2023-09-19T00:36:02;19.70;89.40
55313;DHT22;46892;45.668;11.756;2023-09-19T00:38:31;19.80;89.80
55313;DHT22;46892;45.668;11.756;2023-09-19T00:40:57;19.80;89.60
55313;DHT22;46892;45.668;11.756;2023-09-19T00:43:25;19.80;89.20
55313;DHT22;46892;45.668;11.756;2023-09-19T00:45:53;19.70;88.60
55313;DHT22;46892;45.668;11.756;2023-09-19T00:48:21;19.80;87.80
55313;DHT22;46892;45.668;11.756;2023-09-19T00:50:48;19.60;88.80
55313;DHT22;46892;45.668;11.756;2023-09-19T00:53:17;19.50;89.20
55313;DHT22;46892;45.668;11.756;2023-09-19T00:55:44;19.40;89.10
55313;DHT22;46892;45.668;11.756;2023-09-19T00:58:11;19.40;88.60
55313;DHT22;46892;45.668;11.756;2023-09-19T01:00:37;19.50;88.90
55313;DHT22;46892;45.668;11.756;2023-09-19T01:03:04;19.40;89.20
55313;DHT22;46892;45.668;11.756;2023-09-19T01:05:33;19.40;89.20
55313;DHT22;46892;45.668;11.756;2023-09-19T01:07:59;19.50;89.10
55313;DHT22;46892;45.668;11.756;2023-09-19T01:10:25;19.50;89.00
55313;DHT22;46892;45.668;11.756;2023-09-19T01:15:28;19.50;89.00
55313;DHT22;46892;45.668;11.756;2023-09-19T01:18:02;19.60;89.20
55313;DHT22;46892;45.668;11.756;2023-09-19T01:20:44;19.50;89.10
55313;DHT22;46892;45.668;11.756;2023-09-19T01:26:17;19.50;88.50
55313;DHT22;46892;45.668;11.756;2023-09-19T01:31:23;19.30;88.70
55313;DHT22;46892;45.668;11.756;2023-09-19T01:34:03;19.30;88.80
55313;DHT22;46892;45.668;11.756;2023-09-19T01:36:33;19.30;88.70
55313;DHT22;46892;45.668;11.756;2023-09-19T01:39:13;19.30;88.60
55313;DHT22;46892;45.668;11.756;2023-09-19T01:41:56;19.20;88.80
55313;DHT22;46892;45.668;11.756;2023-09-19T01:44:40;19.20;88.50
55313;DHT22;46892;45.668;11.756;2023-09-19T01:47:19;19.10;89.00
55313;DHT22;46892;45.668;11.756;2023-09-19T01:53:06;19.10;89.10
55313;DHT22;46892;45.668;11.756;2023-09-19T01:55:41;19.10;88.80
55313;DHT22;46892;45.668;11.756;2023-09-19T02:00:55;19.10;88.90
55313;DHT22;46892;45.668;11.756;2023-09-19T02:03:22;19.10;88.70
55313;DHT22;46892;45.668;11.756;2023-09-19T02:05:52;19.10;87.90
55313;DHT22;46892;45.668;11.756;2023-09-19T02:08:20;19.10;87.70
55313;DHT22;46892;45.668;11.756;2023-09-19T02:10:46;19.10;86.40
55313;DHT22;46892;45.668;11.756;2023-09-19T02:13:19;19.00;86.80
55313;DHT22;46892;45.668;11.756;2023-09-19T02:15:45;18.90;87.90
55313;DHT22;46892;45.668;11.756;2023-09-19T02:18:12;19.00;88.00
55313;DHT22;46892;45.668;11.756;2023-09-19T02:20:39;18.90;87.40
55313;DHT22;46892;45.668;11.756;2023-09-19T02:23:05;18.90;88.00
55313;DHT22;46892;45.668;11.756;2023-09-19T02:25:31;19.00;88.20
55313;DHT22;46892;45.668;11.756;2023-09-19T02:27:57;19.00;88.20
55313;DHT22;46892;45.668;11.756;2023-09-19T02:30:29;19.00;87.80
55313;DHT22;46892;45.668;11.756;2023-09-19T02:32:55;19.00;87.70
55313;DHT22;46892;45.668;11.756;2023-09-19T02:35:21;19.00;87.60
55313;DHT22;46892;45.668;11.756;2023-09-19T02:37:50;18.90;87.10
55313;DHT22;46892;45.668;11.756;2023-09-19T02:40:15;19.00;88.30
55313;DHT22;46892;45.668;11.756;2023-09-19T02:42:46;19.10;88.40
55313;DHT22;46892;45.668;11.756;2023-09-19T02:45:12;19.10;88.60
55313;DHT22;46892;45.668;11.756;2023-09-19T02:47:40;19.10;88.60
55313;DHT22;46892;45.668;11.756;2023-09-19T02:50:06;19.00;88.30
55313;DHT22;46892;45.668;11.756;2023-09-19T02:52:32;18.90;88.90
55313;DHT22;46892;45.668;11.756;2023-09-19T02:54:58;19.00;88.80
55313;DHT22;46892;45.668;11.756;2023-09-19T02:57:26;18.90;88.70
55313;DHT22;46892;45.668;11.756;2023-09-19T02:59:53;18.90;88.30
55313;DHT22;46892;45.668;11.756;2023-09-19T03:02:18;19.00;88.00
55313;DHT22;46892;45.668;11.756;2023-09-19T03:04:44;18.90;88.30
55313;DHT22;46892;45.668;11.756;2023-09-19T03:07:11;18.80;88.50
55313;DHT22;46892;45.668;11.756;2023-09-19T03:09:37;18.80;88.00
55313;DHT22;46892;45.668;11.756;2023-09-19T03:12:03;18.80;88.30
55313;DHT22;46892;45.668;11.756;2023-09-19T03:14:29;18.80;88.60
55313;DHT22;46892;45.668;11.756;2023-09-19T03:17:01;18.80;89.10
55313;DHT22;46892;45.668;11.756;2023-09-19T03:19:30;18.70;89.10
55313;DHT22;46892;45.668;11.756;2023-09-19T03:21:59;18.70;88.40
55313;DHT22;46892;45.668;11.756;2023-09-19T03:24:25;18.60;88.10
55313;DHT22;46892;45.668;11.756;2023-09-19T03:26:51;18.50;88.00
55313;DHT22;46892;45.668;11.756;2023-09-19T03:29:17;18.40;89.20
55313;DHT22;46892;45.668;11.756;2023-09-19T03:31:43;18.40;88.20
55313;DHT22;46892;45.668;11.756;2023-09-19T03:34:09;18.40;88.30
55313;DHT22;46892;45.668;11.756;2023-09-19T03:36:35;18.50;88.80
55313;DHT22;46892;45.668;11.756;2023-09-19T03:39:02;18.50;88.20
55313;DHT22;46892;45.668;11.756;2023-09-19T03:41:31;18.60;88.10
55313;DHT22;46892;45.668;11.756;2023-09-19T03:43:57;18.50;87.70
55313;DHT22;46892;45.668;11.756;2023-09-19T03:46:22;18.40;87.00
55313;DHT22;46892;45.668;11.756;2023-09-19T03:48:48;18.30;87.70
55313;DHT22;46892;45.668;11.756;2023-09-19T03:51:14;18.20;87.80
55313;DHT22;46892;45.668;11.756;2023-09-19T03:53:39;18.10;88.10
55313;DHT22;46892;45.668;11.756;2023-09-19T03:56:05;18.10;87.80
55313;DHT22;46892;45.668;11.756;2023-09-19T03:58:31;18.10;88.20
55313;DHT22;46892;45.668;11.756;2023-09-19T04:00:57;17.90;88.70
55313;DHT22;46892;45.668;11.756;2023-09-19T04:03:24;18.00;89.40
55313;DHT22;46892;45.668;11.756;2023-09-19T04:06:00;18.00;88.80
55313;DHT22;46892;45.668;11.756;2023-09-19T04:08:26;18.00;88.90
55313;DHT22;46892;45.668;11.756;2023-09-19T04:10:52;18.10;89.30
55313;DHT22;46892;45.668;11.756;2023-09-19T04:13:18;18.20;88.80
55313;DHT22;46892;45.668;11.756;2023-09-19T04:15:44;18.20;88.70
55313;DHT22;46892;45.668;11.756;2023-09-19T04:18:11;18.10;88.00
55313;DHT22;46892;45.668;11.756;2023-09-19T04:20:37;18.00;88.20
55313;DHT22;46892;45.668;11.756;2023-09-19T04:23:03;17.90;88.90
55313;DHT22;46892;45.668;11.756;2023-09-19T04:25:30;17.80;89.10
55313;DHT22;46892;45.668;11.756;2023-09-19T04:27:57;17.80;89.70
55313;DHT22;46892;45.668;11.756;2023-09-19T04:30:23;17.90;90.00
55313;DHT22;46892;45.668;11.756;2023-09-19T04:32:48;18.00;89.50
55313;DHT22;46892;45.668;11.756;2023-09-19T04:35:16;18.00;89.10
55313;DHT22;46892;45.668;11.756;2023-09-19T04:37:42;18.10;88.80
55313;DHT22;46892;45.668;11.756;2023-09-19T04:40:09;18.00;88.20
55313;DHT22;46892;45.668;11.756;2023-09-19T04:42:40;18.00;88.00
55313;DHT22;46892;45.668;11.756;2023-09-19T04:45:07;18.00;88.60
55313;DHT22;46892;45.668;11.756;2023-09-19T04:47:34;18.00;88.40
55313;DHT22;46892;45.668;11.756;2023-09-19T04:49:59;18.00;87.80
55313;DHT22;46892;45.668;11.756;2023-09-19T04:52:25;18.00;87.80
55313;DHT22;46892;45.668;11.756;2023-09-19T04:54:51;17.90;87.50
55313;DHT22;46892;45.668;11.756;2023-09-19T04:57:17;17.90;87.60
55313;DHT22;46892;45.668;11.756;2023-09-19T04:59:42;17.80;87.70
55313;DHT22;46892;45.668;11.756;2023-09-19T05:02:08;17.80;88.10
55313;DHT22;46892;45.668;11.756;2023-09-19T05:04:34;17.80;88.80
55313;DHT22;46892;45.668;11.756;2023-09-19T05:06:59;17.80;89.70
55313;DHT22;46892;45.668;11.756;2023-09-19T05:09:26;17.90;90.10
55313;DHT22;46892;45.668;11.756;2023-09-19T05:11:52;18.00;90.20
55313;DHT22;46892;45.668;11.756;2023-09-19T05:14:18;18.00;90.70
55313;DHT22;46892;45.668;11.756;2023-09-19T05:16:46;17.90;90.80
55313;DHT22;46892;45.668;11.756;2023-09-19T05:19:12;18.00;90.70
55313;DHT22;46892;45.668;11.756;2023-09-19T05:21:38;18.10;90.60
55313;DHT22;46892;45.668;11.756;2023-09-19T05:24:07;18.20;90.00
55313;DHT22;46892;45.668;11.756;2023-09-19T05:26:33;18.20;89.70
55313;DHT22;46892;45.668;11.756;2023-09-19T05:28:58;18.20;89.20
55313;DHT22;46892;45.668;11.756;2023-09-19T05:31:24;18.20;89.40
55313;DHT22;46892;45.668;11.756;2023-09-19T05:33:50;18.30;89.60
55313;DHT22;46892;45.668;11.756;2023-09-19T05:36:16;18.30;89.00
55313;DHT22;46892;45.668;11.756;2023-09-19T05:38:42;18.30;89.20
55313;DHT22;46892;45.668;11.756;2023-09-19T05:41:10;18.40;89.10
55313;DHT22;46892;45.668;11.756;2023-09-19T05:43:39;18.40;89.90
55313;DHT22;46892;45.668;11.756;2023-09-19T05:46:09;18.50;90.50
55313;DHT22;46892;45.668;11.756;2023-09-19T05:48:37;18.70;90.70
55313;DHT22;46892;45.668;11.756;2023-09-19T05:51:05;18.90;91.00
55313;DHT22;46892;45.668;11.756;2023-09-19T05:53:30;19.20;90.40
55313;DHT22;46892;45.668;11.756;2023-09-19T05:55:56;19.50;89.70
55313;DHT22;46892;45.668;11.756;2023-09-19T05:58:22;19.70;89.10
55313;DHT22;46892;45.668;11.756;2023-09-19T06:00:48;19.90;88.40
55313;DHT22;46892;45.668;11.756;2023-09-19T06:03:14;20.20;87.80
55313;DHT22;46892;45.668;11.756;2023-09-19T06:05:40;20.30;87.20
55313;DHT22;46892;45.668;11.756;2023-09-19T06:08:07;20.60;88.40
55313;DHT22;46892;45.668;11.756;2023-09-19T06:10:34;20.80;87.30
55313;DHT22;46892;45.668;11.756;2023-09-19T06:13:03;21.00;85.50
55313;DHT22;46892;45.668;11.756;2023-09-19T06:15:35;21.20;85.00
55313;DHT22;46892;45.668;11.756;2023-09-19T06:18:01;21.50;84.10
55313;DHT22;46892;45.668;11.756;2023-09-19T06:20:30;21.70;83.70
55313;DHT22;46892;45.668;11.756;2023-09-19T06:22:56;21.80;83.10
55313;DHT22;46892;45.668;11.756;2023-09-19T06:25:22;21.80;82.30
55313;DHT22;46892;45.668;11.756;2023-09-19T06:27:52;21.80;81.70
55313;DHT22;46892;45.668;11.756;2023-09-19T06:30:19;21.80;82.10
55313;DHT22;46892;45.668;11.756;2023-09-19T06:32:45;21.80;82.20
55313;DHT22;46892;45.668;11.756;2023-09-19T06:35:12;21.80;82.40
55313;DHT22;46892;45.668;11.756;2023-09-19T06:37:39;21.90;82.70
55313;DHT22;46892;45.668;11.756;2023-09-19T06:40:09;22.00;82.40
55313;DHT22;46892;45.668;11.756;2023-09-19T06:42:51;22.10;82.30
55313;DHT22;46892;45.668;11.756;2023-09-19T06:45:21;22.30;81.70
55313;DHT22;46892;45.668;11.756;2023-09-19T06:47:49;22.30;82.50
55313;DHT22;46892;45.668;11.756;2023-09-19T06:50:17;22.30;81.50
55313;DHT22;46892;45.668;11.756;2023-09-19T06:52:44;22.50;80.50
55313;DHT22;46892;45.668;11.756;2023-09-19T06:55:11;22.50;80.40
55313;DHT22;46892;45.668;11.756;2023-09-19T06:57:39;22.60;80.30
55313;DHT22;46892;45.668;11.756;2023-09-19T07:00:06;22.70;81.00
55313;DHT22;46892;45.668;11.756;2023-09-19T07:02:56;22.80;80.40
55313;DHT22;46892;45.668;11.756;2023-09-19T07:05:22;22.90;80.00
55313;DHT22;46892;45.668;11.756;2023-09-19T07:07:48;23.10;79.00
55313;DHT22;46892;45.668;11.756;2023-09-19T07:10:15;23.20;78.60
55313;DHT22;46892;45.668;11.756;2023-09-19T07:12:41;23.40;80.10
55313;DHT22;46892;45.668;11.756;2023-09-19T07:15:07;23.70;78.90
55313;DHT22;46892;45.668;11.756;2023-09-19T07:17:33;23.80;78.10
55313;DHT22;46892;45.668;11.756;2023-09-19T07:19:59;24.10;77.40
55313;DHT22;46892;45.668;11.756;2023-09-19T07:22:28;24.30;76.10
55313;DHT22;46892;45.668;11.756;2023-09-19T07:24:54;24.70;75.60
55313;DHT22;46892;45.668;11.756;2023-09-19T07:27:20;24.80;75.40
55313;DHT22;46892;45.668;11.756;2023-09-19T07:29:46;25.00;73.80
55313;DHT22;46892;45.668;11.756;2023-09-19T07:32:11;25.20;74.20
55313;DHT22;46892;45.668;11.756;2023-09-19T07:34:38;25.40;73.40
55313;DHT22;46892;45.668;11.756;2023-09-19T07:37:06;25.50;72.70
55313;DHT22;46892;45.668;11.756;2023-09-19T07:39:32;25.30;71.20
55313;DHT22;46892;45.668;11.756;2023-09-19T07:41:57;25.40;73.30
55313;DHT22;46892;45.668;11.756;2023-09-19T07:44:23;25.50;71.40
55313;DHT22;46892;45.668;11.756;2023-09-19T07:46:51;25.60;73.40
55313;DHT22;46892;45.668;11.756;2023-09-19T07:49:17;25.80;71.30
55313;DHT22;46892;45.668;11.756;2023-09-19T07:51:44;25.80;74.10
55313;DHT22;46892;45.668;11.756;2023-09-19T07:54:13;25.90;70.30
55313;DHT22;46892;45.668;11.756;2023-09-19T07:56:40;26.00;70.60
55313;DHT22;46892;45.668;11.756;2023-09-19T07:59:06;26.10;70.20
55313;DHT22;46892;45.668;11.756;2023-09-19T08:01:32;26.00;67.80
55313;DHT22;46892;45.668;11.756;2023-09-19T08:03:58;26.00;67.40
55313;DHT22;46892;45.668;11.756;2023-09-19T08:06:24;26.00;67.80
55313;DHT22;46892;45.668;11.756;2023-09-19T08:08:51;25.90;69.10
55313;DHT22;46892;45.668;11.756;2023-09-19T08:11:19;25.90;68.60
55313;DHT22;46892;45.668;11.756;2023-09-19T08:13:47;25.90;70.20
55313;DHT22;46892;45.668;11.756;2023-09-19T08:16:15;25.70;68.70
55313;DHT22;46892;45.668;11.756;2023-09-19T08:18:41;25.50;71.00
55313;DHT22;46892;45.668;11.756;2023-09-19T08:21:07;25.50;70.50
55313;DHT22;46892;45.668;11.756;2023-09-19T08:23:38;25.40;71.70
55313;DHT22;46892;45.668;11.756;2023-09-19T08:26:04;25.40;70.20
55313;DHT22;46892;45.668;11.756;2023-09-19T08:28:36;25.50;70.90
55313;DHT22;46892;45.668;11.756;2023-09-19T08:31:06;25.60;70.50
55313;DHT22;46892;45.668;11.756;2023-09-19T08:33:36;25.60;71.30
55313;DHT22;46892;45.668;11.756;2023-09-19T08:36:05;25.70;71.30
55313;DHT22;46892;45.668;11.756;2023-09-19T08:38:33;25.70;70.00
55313;DHT22;46892;45.668;11.756;2023-09-19T08:41:00;25.70;69.30
55313;DHT22;46892;45.668;11.756;2023-09-19T08:43:26;25.70;70.90
55313;DHT22;46892;45.668;11.756;2023-09-19T08:46:20;25.50;71.80
55313;DHT22;46892;45.668;11.756;2023-09-19T08:49:03;25.50;72.80
55313;DHT22;46892;45.668;11.756;2023-09-19T08:51:39;25.50;69.80
55313;DHT22;46892;45.668;11.756;2023-09-19T08:54:07;25.50;72.60
55313;DHT22;46892;45.668;11.756;2023-09-19T08:56:33;25.70;70.50
55313;DHT22;46892;45.668;11.756;2023-09-19T08:59:06;25.70;66.70
55313;DHT22;46892;45.668;11.756;2023-09-19T09:01:33;25.70;68.60
55313;DHT22;46892;45.668;11.756;2023-09-19T09:03:59;25.60;68.10
55313;DHT22;46892;45.668;11.756;2023-09-19T09:06:26;25.50;68.50
55313;DHT22;46892;45.668;11.756;2023-09-19T09:08:55;25.60;68.30
55313;DHT22;46892;45.668;11.756;2023-09-19T09:11:22;25.70;66.60
55313;DHT22;46892;45.668;11.756;2023-09-19T09:13:50;25.90;66.50
55313;DHT22;46892;45.668;11.756;2023-09-19T09:16:16;26.00;65.80
55313;DHT22;46892;45.668;11.756;2023-09-19T09:18:45;25.90;66.90
55313;DHT22;46892;45.668;11.756;2023-09-19T09:21:12;25.80;66.10
55313;DHT22;46892;45.668;11.756;2023-09-19T09:23:39;25.80;68.10
55313;DHT22;46892;45.668;11.756;2023-09-19T09:26:05;25.70;69.00
55313;DHT22;46892;45.668;11.756;2023-09-19T09:28:35;25.70;70.00
55313;DHT22;46892;45.668;11.756;2023-09-19T09:31:02;25.70;69.90
55313;DHT22;46892;45.668;11.756;2023-09-19T09:33:35;25.70;70.50
55313;DHT22;46892;45.668;11.756;2023-09-19T09:36:03;25.70;71.40
55313;DHT22;46892;45.668;11.756;2023-09-19T09:38:42;25.60;72.30
55313;DHT22;46892;45.668;11.756;2023-09-19T09:41:09;25.50;72.60
55313;DHT22;46892;45.668;11.756;2023-09-19T09:43:37;25.50;72.20
55313;DHT22;46892;45.668;11.756;2023-09-19T09:46:12;25.40;71.60
55313;DHT22;46892;45.668;11.756;2023-09-19T09:49:04;25.30;71.20
55313;DHT22;46892;45.668;11.756;2023-09-19T09:52:18;25.10;72.50
55313;DHT22;46892;45.668;11.756;2023-09-19T09:55:04;25.00;73.20
55313;DHT22;46892;45.668;11.756;2023-09-19T09:57:32;24.90;73.10
55313;DHT22;46892;45.668;11.756;2023-09-19T09:59:59;24.80;73.00
55313;DHT22;46892;45.668;11.756;2023-09-19T10:02:42;24.70;73.50
55313;DHT22;46892;45.668;11.756;2023-09-19T10:07:39;24.70;73.30
55313;DHT22;46892;45.668;11.756;2023-09-19T10:10:08;24.60;73.60
55313;DHT22;46892;45.668;11.756;2023-09-19T10:12:48;24.50;74.40
55313;DHT22;46892;45.668;11.756;2023-09-19T10:15:17;24.50;74.50
55313;DHT22;46892;45.668;11.756;2023-09-19T10:17:47;24.50;74.50
55313;DHT22;46892;45.668;11.756;2023-09-19T10:20:17;24.50;74.90
55313;DHT22;46892;45.668;11.756;2023-09-19T10:23:07;24.50;74.30
55313;DHT22;46892;45.668;11.756;2023-09-19T10:25:42;24.50;74.70
55313;DHT22;46892;45.668;11.756;2023-09-19T10:28:10;24.60;74.90
55313;DHT22;46892;45.668;11.756;2023-09-19T10:30:46;24.80;74.40
55313;DHT22;46892;45.668;11.756;2023-09-19T10:33:14;24.90;73.60
55313;DHT22;46892;45.668;11.756;2023-09-19T10:35:43;25.10;73.00
55313;DHT22;46892;45.668;11.756;2023-09-19T10:38:10;25.20;71.60
55313;DHT22;46892;45.668;11.756;2023-09-19T10:40:38;25.50;73.50
55313;DHT22;46892;45.668;11.756;2023-09-19T10:43:12;25.60;72.70
55313;DHT22;46892;45.668;11.756;2023-09-19T10:45:39;25.80;72.00
55313;DHT22;46892;45.668;11.756;2023-09-19T10:48:06;25.90;70.30
55313;DHT22;46892;45.668;11.756;2023-09-19T10:51:01;26.00;70.00
55313;DHT22;46892;45.668;11.756;2023-09-19T10:53:45;26.20;70.30
55313;DHT22;46892;45.668;11.756;2023-09-19T10:56:26;26.30;68.70
55313;DHT22;46892;45.668;11.756;2023-09-19T10:59:10;26.40;69.00
55313;DHT22;46892;45.668;11.756;2023-09-19T11:01:42;26.50;67.70
55313;DHT22;46892;45.668;11.756;2023-09-19T11:04:23;26.50;68.90
55313;DHT22;46892;45.668;11.756;2023-09-19T11:07:12;26.60;67.10
55313;DHT22;46892;45.668;11.756;2023-09-19T11:09:47;26.70;66.60
55313;DHT22;46892;45.668;11.756;2023-09-19T11:15:09;26.70;65.80
55313;DHT22;46892;45.668;11.756;2023-09-19T11:17:38;26.60;66.00
55313;DHT22;46892;45.668;11.756;2023-09-19T11:30:44;26.00;67.80
55313;DHT22;46892;45.668;11.756;2023-09-19T11:33:18;25.90;68.30
55313;DHT22;46892;45.668;11.756;2023-09-19T11:36:14;25.80;67.80
55313;DHT22;46892;45.668;11.756;2023-09-19T11:49:26;25.70;65.40
55313;DHT22;46892;45.668;11.756;2023-09-19T11:51:59;25.70;67.70
55313;DHT22;46892;45.668;11.756;2023-09-19T11:54:27;25.70;66.30
55313;DHT22;46892;45.668;11.756;2023-09-19T11:56:57;25.60;66.40
55313;DHT22;46892;45.668;11.756;2023-09-19T11:59:28;25.70;67.50
55313;DHT22;46892;45.668;11.756;2023-09-19T12:02:01;25.70;67.80
55313;DHT22;46892;45.668;11.756;2023-09-19T12:04:42;25.70;69.30
55313;DHT22;46892;45.668;11.756;2023-09-19T12:07:16;25.80;66.30
55313;DHT22;46892;45.668;11.756;2023-09-19T12:09:43;26.00;67.50
55313;DHT22;46892;45.668;11.756;2023-09-19T12:12:26;26.20;67.40
55313;DHT22;46892;45.668;11.756;2023-09-19T12:15:01;26.40;64.60
55313;DHT22;46892;45.668;11.756;2023-09-19T12:17:41;26.50;64.70
55313;DHT22;46892;45.668;11.756;2023-09-19T12:20:09;26.60;65.00
55313;DHT22;46892;45.668;11.756;2023-09-19T12:22:46;26.80;66.10
55313;DHT22;46892;45.668;11.756;2023-09-19T12:25:13;26.90;62.40
55313;DHT22;46892;45.668;11.756;2023-09-19T12:27:45;27.10;63.60
55313;DHT22;46892;45.668;11.756;2023-09-19T12:30:13;27.20;62.30
55313;DHT22;46892;45.668;11.756;2023-09-19T12:32:45;27.20;60.70
55313;DHT22;46892;45.668;11.756;2023-09-19T12:35:27;27.20;61.90
55313;DHT22;46892;45.668;11.756;2023-09-19T12:37:55;27.30;61.70
55313;DHT22;46892;45.668;11.756;2023-09-19T12:40:22;27.30;62.90
55313;DHT22;46892;45.668;11.756;2023-09-19T12:42:56;27.30;62.30
55313;DHT22;46892;45.668;11.756;2023-09-19T12:45:24;27.30;61.10
55313;DHT22;46892;45.668;11.756;2023-09-19T12:48:21;27.30;63.00
55313;DHT22;46892;45.668;11.756;2023-09-19T12:53:32;27.20;62.30
55313;DHT22;46892;45.668;11.756;2023-09-19T12:55:59;27.20;62.00
55313;DHT22;46892;45.668;11.756;2023-09-19T12:58:25;27.20;63.20
55313;DHT22;46892;45.668;11.756;2023-09-19T13:00:52;27.10;62.30
55313;DHT22;46892;45.668;11.756;2023-09-19T13:03:27;27.10;61.60
55313;DHT22;46892;45.668;11.756;2023-09-19T13:06:02;27.20;62.10
55313;DHT22;46892;45.668;11.756;2023-09-19T13:08:37;27.20;62.20
55313;DHT22;46892;45.668;11.756;2023-09-19T13:11:11;27.20;60.10
55313;DHT22;46892;45.668;11.756;2023-09-19T13:17:01;27.20;60.00
55313;DHT22;46892;45.668;11.756;2023-09-19T13:19:44;27.20;61.40
55313;DHT22;46892;45.668;11.756;2023-09-19T13:25:05;27.30;61.30
55313;DHT22;46892;45.668;11.756;2023-09-19T13:27:32;27.30;62.20
55313;DHT22;46892;45.668;11.756;2023-09-19T13:29:58;27.30;62.00
55313;DHT22;46892;45.668;11.756;2023-09-19T13:32:25;27.40;62.50
55313;DHT22;46892;45.668;11.756;2023-09-19T13:34:51;27.40;61.50
55313;DHT22;46892;45.668;11.756;2023-09-19T13:37:17;27.50;61.70
55313;DHT22;46892;45.668;11.756;2023-09-19T13:39:44;27.50;61.90
55313;DHT22;46892;45.668;11.756;2023-09-19T13:42:13;27.50;60.60
55313;DHT22;46892;45.668;11.756;2023-09-19T13:44:39;27.60;60.80
55313;DHT22;46892;45.668;11.756;2023-09-19T13:47:06;27.50;60.20
55313;DHT22;46892;45.668;11.756;2023-09-19T13:49:38;27.50;60.90
55313;DHT22;46892;45.668;11.756;2023-09-19T13:52:04;27.70;60.40
55313;DHT22;46892;45.668;11.756;2023-09-19T13:54:30;27.60;60.40
55313;DHT22;46892;45.668;11.756;2023-09-19T13:56:56;27.70;60.50
55313;DHT22;46892;45.668;11.756;2023-09-19T13:59:22;27.80;60.70
55313;DHT22;46892;45.668;11.756;2023-09-19T14:01:49;27.80;60.70
55313;DHT22;46892;45.668;11.756;2023-09-19T14:04:16;27.80;59.40
55313;DHT22;46892;45.668;11.756;2023-09-19T14:06:42;27.90;60.90
55313;DHT22;46892;45.668;11.756;2023-09-19T14:09:08;28.00;59.90
55313;DHT22;46892;45.668;11.756;2023-09-19T14:11:36;28.10;61.30
55313;DHT22;46892;45.668;11.756;2023-09-19T14:14:02;28.10;59.40
55313;DHT22;46892;45.668;11.756;2023-09-19T14:16:30;28.10;58.60
55313;DHT22;46892;45.668;11.756;2023-09-19T14:18:57;28.10;58.70
55313;DHT22;46892;45.668;11.756;2023-09-19T14:21:23;28.00;60.10
55313;DHT22;46892;45.668;11.756;2023-09-19T14:23:49;28.00;60.70
55313;DHT22;46892;45.668;11.756;2023-09-19T14:26:15;28.00;59.70
55313;DHT22;46892;45.668;11.756;2023-09-19T14:28:44;27.80;60.00
55313;DHT22;46892;45.668;11.756;2023-09-19T14:31:12;27.80;59.30
55313;DHT22;46892;45.668;11.756;2023-09-19T14:33:40;27.80;59.60
55313;DHT22;46892;45.668;11.756;2023-09-19T14:36:09;27.70;59.40
55313;DHT22;46892;45.668;11.756;2023-09-19T14:38:37;27.70;60.60
55313;DHT22;46892;45.668;11.756;2023-09-19T14:41:05;27.60;58.70
55313;DHT22;46892;45.668;11.756;2023-09-19T14:43:32;27.50;59.30
55313;DHT22;46892;45.668;11.756;2023-09-19T14:46:04;27.50;59.00
55313;DHT22;46892;45.668;11.756;2023-09-19T14:48:33;27.50;59.90
55313;DHT22;46892;45.668;11.756;2023-09-19T14:51:06;27.40;59.40
55313;DHT22;46892;45.668;11.756;2023-09-19T14:53:38;27.30;60.80
55313;DHT22;46892;45.668;11.756;2023-09-19T14:56:10;27.20;59.20
55313;DHT22;46892;45.668;11.756;2023-09-19T14:58:37;27.20;60.70
55313;DHT22;46892;45.668;11.756;2023-09-19T15:01:12;27.20;59.90
55313;DHT22;46892;45.668;11.756;2023-09-19T15:03:40;27.20;59.00
55313;DHT22;46892;45.668;11.756;2023-09-19T15:06:09;27.20;59.20
55313;DHT22;46892;45.668;11.756;2023-09-19T15:08:38;27.00;58.70
55313;DHT22;46892;45.668;11.756;2023-09-19T15:11:08;27.00;59.80
55313;DHT22;46892;45.668;11.756;2023-09-19T15:13:34;27.00;59.80
55313;DHT22;46892;45.668;11.756;2023-09-19T15:16:07;26.90;59.40
55313;DHT22;46892;45.668;11.756;2023-09-19T15:18:42;26.90;58.80
55313;DHT22;46892;45.668;11.756;2023-09-19T15:21:12;26.90;59.10
55313;DHT22;46892;45.668;11.756;2023-09-19T15:23:38;27.00;59.30
55313;DHT22;46892;45.668;11.756;2023-09-19T15:26:05;27.00;58.70
55313;DHT22;46892;45.668;11.756;2023-09-19T15:28:32;27.00;57.80
55313;DHT22;46892;45.668;11.756;2023-09-19T15:31:03;27.10;59.40
55313;DHT22;46892;45.668;11.756;2023-09-19T15:33:30;27.00;61.90
55313;DHT22;46892;45.668;11.756;2023-09-19T15:36:06;26.70;61.20
55313;DHT22;46892;45.668;11.756;2023-09-19T15:39:02;26.30;61.20
55313;DHT22;46892;45.668;11.756;2023-09-19T15:41:36;25.90;61.70
55313;DHT22;46892;45.668;11.756;2023-09-19T15:44:12;25.60;62.70
55313;DHT22;46892;45.668;11.756;2023-09-19T15:46:37;25.30;63.60
55313;DHT22;46892;45.668;11.756;2023-09-19T15:49:03;25.20;64.10
55313;DHT22;46892;45.668;11.756;2023-09-19T15:51:29;25.10;64.90
55313;DHT22;46892;45.668;11.756;2023-09-19T15:53:56;24.90;66.10
55313;DHT22;46892;45.668;11.756;2023-09-19T15:56:23;24.80;66.80
55313;DHT22;46892;45.668;11.756;2023-09-19T15:58:55;24.70;67.60
55313;DHT22;46892;45.668;11.756;2023-09-19T16:01:21;24.50;68.60
55313;DHT22;46892;45.668;11.756;2023-09-19T16:03:52;24.60;69.50
55313;DHT22;46892;45.668;11.756;2023-09-19T16:06:20;24.40;70.10
55313;DHT22;46892;45.668;11.756;2023-09-19T16:08:49;24.30;70.20
55313;DHT22;46892;45.668;11.756;2023-09-19T16:11:17;24.30;70.80
55313;DHT22;46892;45.668;11.756;2023-09-19T16:13:43;24.20;71.10
55313;DHT22;46892;45.668;11.756;2023-09-19T16:16:11;24.20;71.30
55313;DHT22;46892;45.668;11.756;2023-09-19T16:18:39;24.10;71.80